Terminal Aerodrome Forecast
Issued by NWS

Home | Current Version | Previous Version | Graphics & Text | Print | Product List | Glossary On
Versions: 1 2 3 4 5 6 7 8 9 10 11 12 13 14 15 16 17 18 19 20 21 22 23 24
000
FTUS43 KLOT 272341
TAFGYY
TAF
KGYY 272341Z 2800/2824 27007KT P6SM OVC070
     FM280700 36006KT P6SM OVC040
     FM280900 35009KT 6SM -RA OVC015
      TEMPO 2812/2815 -SHRA OVC008
     FM281600 35012KT P6SM OVC015
     FM282000 01015G25KT P6SM VCSH BKN025=

USA.gov is the U.S. government's official web portal to all federal, state and local government web resources and services.